sensor_id;sensor_type;location;lat;lon;timestamp;pressure;altitude;pressure_sealevel;temperature;humidity
17928;BME280;9089;58.396;15.544;2022-07-06T12:38:48;100418.34;;;24.45;48.71
17928;BME280;9089;58.396;15.544;2022-07-06T12:41:29;100419.53;;;24.79;48.46
17928;BME280;9089;58.396;15.544;2022-07-06T12:44:03;100417.00;;;24.77;51.53
17928;BME280;9089;58.396;15.544;2022-07-06T12:46:31;100419.59;;;24.50;50.81
17928;BME280;9089;58.396;15.544;2022-07-06T12:48:57;100419.41;;;24.61;49.33
17928;BME280;9089;58.396;15.544;2022-07-06T12:51:24;100414.59;;;24.84;48.09
17928;BME280;9089;58.396;15.544;2022-07-06T12:53:51;100418.50;;;24.89;50.03
17928;BME280;9089;58.396;15.544;2022-07-06T12:56:17;100420.28;;;24.62;49.17
17928;BME280;9089;58.396;15.544;2022-07-06T12:58:59;100408.88;;;25.24;50.76
17928;BME280;9089;58.396;15.544;2022-07-06T13:01:25;100408.00;;;25.23;53.78
17928;BME280;9089;58.396;15.544;2022-07-06T13:03:55;100426.38;;;24.54;47.42
17928;BME280;9089;58.396;15.544;2022-07-06T13:06:31;100407.81;;;24.61;48.14
17928;BME280;9089;58.396;15.544;2022-07-06T13:08:59;100392.03;;;24.75;49.12
17928;BME280;9089;58.396;15.544;2022-07-06T13:11:24;100407.84;;;25.25;50.10
17928;BME280;9089;58.396;15.544;2022-07-06T13:13:50;100415.53;;;25.19;49.03
17928;BME280;9089;58.396;15.544;2022-07-06T13:16:16;100413.34;;;25.05;48.76
17928;BME280;9089;58.396;15.544;2022-07-06T13:18:42;100418.56;;;24.80;51.32
17928;BME280;9089;58.396;15.544;2022-07-06T13:21:08;100408.97;;;25.04;50.21
17928;BME280;9089;58.396;15.544;2022-07-06T13:23:34;100401.28;;;24.63;49.74
17928;BME280;9089;58.396;15.544;2022-07-06T13:26:01;100405.91;;;23.96;50.72
17928;BME280;9089;58.396;15.544;2022-07-06T13:28:26;100404.63;;;24.09;52.23
17928;BME280;9089;58.396;15.544;2022-07-06T13:30:52;100408.59;;;23.77;51.39
17928;BME280;9089;58.396;15.544;2022-07-06T13:33:18;100406.19;;;23.25;50.58
17928;BME280;9089;58.396;15.544;2022-07-06T13:35:43;100410.22;;;23.49;50.58
17928;BME280;9089;58.396;15.544;2022-07-06T13:38:09;100404.31;;;23.93;50.17
17928;BME280;9089;58.396;15.544;2022-07-06T13:40:35;100412.69;;;24.19;48.04
17928;BME280;9089;58.396;15.544;2022-07-06T13:43:02;100406.31;;;24.10;47.83
17928;BME280;9089;58.396;15.544;2022-07-06T13:45:28;100413.97;;;23.86;50.84
17928;BME280;9089;58.396;15.544;2022-07-06T13:47:54;100401.81;;;24.11;49.65
17928;BME280;9089;58.396;15.544;2022-07-06T13:50:20;100399.13;;;24.21;50.16
17928;BME280;9089;58.396;15.544;2022-07-06T13:52:46;100395.56;;;23.82;47.68
17928;BME280;9089;58.396;15.544;2022-07-06T13:55:11;100405.16;;;23.84;47.01
17928;BME280;9089;58.396;15.544;2022-07-06T13:57:37;100401.34;;;23.96;48.47
17928;BME280;9089;58.396;15.544;2022-07-06T14:00:09;100401.66;;;24.13;47.67
17928;BME280;9089;58.396;15.544;2022-07-06T14:02:35;100405.34;;;24.02;46.51
17928;BME280;9089;58.396;15.544;2022-07-06T14:05:01;100394.00;;;24.27;51.09
17928;BME280;9089;58.396;15.544;2022-07-06T14:07:27;100383.81;;;23.92;47.38
17928;BME280;9089;58.396;15.544;2022-07-06T14:09:52;100392.00;;;24.20;48.79
17928;BME280;9089;58.396;15.544;2022-07-06T14:12:18;100393.09;;;24.46;45.94
17928;BME280;9089;58.396;15.544;2022-07-06T14:14:44;100387.84;;;24.44;45.29
17928;BME280;9089;58.396;15.544;2022-07-06T14:17:11;100389.59;;;24.26;48.20
17928;BME280;9089;58.396;15.544;2022-07-06T14:19:38;100373.47;;;24.17;48.35
17928;BME280;9089;58.396;15.544;2022-07-06T14:22:04;100390.03;;;24.12;46.89
17928;BME280;9089;58.396;15.544;2022-07-06T14:24:29;100382.53;;;24.06;45.86
17928;BME280;9089;58.396;15.544;2022-07-06T14:26:55;100371.19;;;24.31;47.41
17928;BME280;9089;58.396;15.544;2022-07-06T14:29:21;100368.66;;;24.01;48.91
17928;BME280;9089;58.396;15.544;2022-07-06T14:31:46;100378.88;;;24.72;45.77
17928;BME280;9089;58.396;15.544;2022-07-06T14:34:14;100375.75;;;24.02;45.93
17928;BME280;9089;58.396;15.544;2022-07-06T14:36:39;100395.13;;;24.25;46.32
17928;BME280;9089;58.396;15.544;2022-07-06T14:39:05;100387.03;;;23.86;45.49
17928;BME280;9089;58.396;15.544;2022-07-06T14:41:31;100370.91;;;24.15;43.72
17928;BME280;9089;58.396;15.544;2022-07-06T14:43:56;100377.41;;;23.93;40.74
17928;BME280;9089;58.396;15.544;2022-07-06T14:46:22;100349.78;;;24.10;45.43
17928;BME280;9089;58.396;15.544;2022-07-06T14:48:48;100366.91;;;24.38;45.74
17928;BME280;9089;58.396;15.544;2022-07-06T14:51:15;100376.69;;;24.30;43.03
17928;BME280;9089;58.396;15.544;2022-07-06T14:53:41;100368.78;;;24.09;42.37
17928;BME280;9089;58.396;15.544;2022-07-06T14:56:07;100366.66;;;23.93;43.67
17928;BME280;9089;58.396;15.544;2022-07-06T14:58:33;100365.22;;;24.18;44.52
17928;BME280;9089;58.396;15.544;2022-07-06T15:00:59;100372.47;;;23.89;46.79
17928;BME280;9089;58.396;15.544;2022-07-06T15:03:25;100360.44;;;23.64;42.90
17928;BME280;9089;58.396;15.544;2022-07-06T15:05:50;100361.16;;;24.04;45.19
17928;BME280;9089;58.396;15.544;2022-07-06T15:08:18;100355.84;;;24.41;48.11
17928;BME280;9089;58.396;15.544;2022-07-06T15:10:44;100350.78;;;23.90;46.28
17928;BME280;9089;58.396;15.544;2022-07-06T15:13:10;100357.31;;;24.17;45.69
17928;BME280;9089;58.396;15.544;2022-07-06T15:15:36;100359.00;;;24.27;48.77
17928;BME280;9089;58.396;15.544;2022-07-06T15:18:02;100350.78;;;24.75;49.15
17928;BME280;9089;58.396;15.544;2022-07-06T15:20:28;100359.91;;;24.55;47.46
17928;BME280;9089;58.396;15.544;2022-07-06T15:22:53;100293.88;;;24.41;46.39
17928;BME280;9089;58.396;15.544;2022-07-06T15:25:21;100347.84;;;24.49;47.92
17928;BME280;9089;58.396;15.544;2022-07-06T15:27:49;100341.09;;;24.36;43.03
17928;BME280;9089;58.396;15.544;2022-07-06T15:30:15;100345.41;;;24.00;45.28
17928;BME280;9089;58.396;15.544;2022-07-06T15:32:41;100347.69;;;24.04;46.49
17928;BME280;9089;58.396;15.544;2022-07-06T15:35:07;100346.00;;;23.75;45.71
17928;BME280;9089;58.396;15.544;2022-07-06T15:37:33;100349.66;;;23.74;45.50
17928;BME280;9089;58.396;15.544;2022-07-06T15:39:59;100350.06;;;23.79;46.48
17928;BME280;9089;58.396;15.544;2022-07-06T15:42:26;100352.84;;;24.44;45.77
17928;BME280;9089;58.396;15.544;2022-07-06T15:44:52;100344.50;;;24.28;44.69
17928;BME280;9089;58.396;15.544;2022-07-06T15:49:44;100353.13;;;24.41;44.90
17928;BME280;9089;58.396;15.544;2022-07-06T15:52:10;100336.19;;;24.58;42.62
17928;BME280;9089;58.396;15.544;2022-07-06T15:54:36;100351.06;;;23.97;43.24
17928;BME280;9089;58.396;15.544;2022-07-06T15:57:02;100350.22;;;23.87;44.79
17928;BME280;9089;58.396;15.544;2022-07-06T16:01:56;100342.59;;;23.73;47.19
17928;BME280;9089;58.396;15.544;2022-07-06T16:04:21;100345.13;;;23.65;48.37
17928;BME280;9089;58.396;15.544;2022-07-06T16:06:47;100340.88;;;23.91;48.44
17928;BME280;9089;58.396;15.544;2022-07-06T16:09:13;100348.94;;;23.53;49.06
17928;BME280;9089;58.396;15.544;2022-07-06T16:11:39;100354.78;;;23.08;51.71
17928;BME280;9089;58.396;15.544;2022-07-06T16:14:05;100344.69;;;22.82;51.04
17928;BME280;9089;58.396;15.544;2022-07-06T16:16:32;100356.81;;;22.86;52.23
17928;BME280;9089;58.396;15.544;2022-07-06T16:18:58;100341.72;;;23.34;51.19
17928;BME280;9089;58.396;15.544;2022-07-06T16:21:24;100338.94;;;22.66;54.40
17928;BME280;9089;58.396;15.544;2022-07-06T16:23:50;100348.97;;;22.64;55.43
17928;BME280;9089;58.396;15.544;2022-07-06T16:26:15;100349.69;;;22.66;55.81
17928;BME280;9089;58.396;15.544;2022-07-06T16:28:41;100346.13;;;22.95;57.64
17928;BME280;9089;58.396;15.544;2022-07-06T16:31:07;100339.97;;;22.84;56.83
17928;BME280;9089;58.396;15.544;2022-07-06T16:33:34;100348.50;;;22.89;60.55
17928;BME280;9089;58.396;15.544;2022-07-06T16:36:04;100329.50;;;23.21;58.19
17928;BME280;9089;58.396;15.544;2022-07-06T16:38:31;100333.00;;;23.21;61.89
17928;BME280;9089;58.396;15.544;2022-07-06T16:40:57;100333.41;;;22.97;62.25
17928;BME280;9089;58.396;15.544;2022-07-06T16:43:22;100334.75;;;22.73;57.59
17928;BME280;9089;58.396;15.544;2022-07-06T16:45:48;100335.72;;;22.51;59.19
17928;BME280;9089;58.396;15.544;2022-07-06T16:48:16;100341.44;;;22.37;59.02
17928;BME280;9089;58.396;15.544;2022-07-06T16:50:43;100329.38;;;22.73;56.75
17928;BME280;9089;58.396;15.544;2022-07-06T16:53:09;100325.28;;;22.48;56.14
17928;BME280;9089;58.396;15.544;2022-07-06T16:55:36;100334.06;;;22.90;55.18
17928;BME280;9089;58.396;15.544;2022-07-06T16:58:02;100337.44;;;22.82;50.31
17928;BME280;9089;58.396;15.544;2022-07-06T17:00:27;100306.84;;;23.23;50.28
17928;BME280;9089;58.396;15.544;2022-07-06T17:02:54;100325.88;;;23.41;49.89
17928;BME280;9089;58.396;15.544;2022-07-06T17:05:20;100338.50;;;22.61;53.48
17928;BME280;9089;58.396;15.544;2022-07-06T17:07:47;100344.56;;;22.63;54.06
17928;BME280;9089;58.396;15.544;2022-07-06T17:10:13;100336.66;;;23.11;50.49
17928;BME280;9089;58.396;15.544;2022-07-06T17:12:39;100333.38;;;24.04;50.31
17928;BME280;9089;58.396;15.544;2022-07-06T17:15:06;100333.94;;;23.98;49.80
17928;BME280;9089;58.396;15.544;2022-07-06T17:17:31;100328.25;;;24.10;50.71
17928;BME280;9089;58.396;15.544;2022-07-06T17:19:57;100320.50;;;23.69;50.28
17928;BME280;9089;58.396;15.544;2022-07-06T17:22:23;100342.28;;;22.88;49.39
17928;BME280;9089;58.396;15.544;2022-07-06T17:36:59;100354.81;;;20.90;nan
17928;BME280;9089;58.396;15.544;2022-07-06T17:39:24;100350.31;;;20.90;nan
17928;BME280;9089;58.396;15.544;2022-07-06T17:41:51;100350.19;;;20.92;nan
17928;BME280;9089;58.396;15.544;2022-07-06T17:44:17;100335.56;;;21.18;nan
17928;BME280;9089;58.396;15.544;2022-07-06T17:46:43;100346.03;;;20.88;nan
17928;BME280;9089;58.396;15.544;2022-07-06T17:49:09;100347.25;;;20.84;nan
17928;BME280;9089;58.396;15.544;2022-07-06T17:51:34;100345.81;;;20.69;nan
17928;BME280;9089;58.396;15.544;2022-07-06T17:54:00;100343.09;;;20.91;nan
17928;BME280;9089;58.396;15.544;2022-07-06T17:56:26;100305.50;;;21.46;nan
17928;BME280;9089;58.396;15.544;2022-07-06T17:58:53;100329.59;;;21.89;nan
17928;BME280;9089;58.396;15.544;2022-07-06T18:01:19;100327.63;;;22.42;nan
17928;BME280;9089;58.396;15.544;2022-07-06T18:03:45;100308.66;;;21.40;nan
17928;BME280;9089;58.396;15.544;2022-07-06T18:06:11;100329.66;;;21.35;nan
17928;BME280;9089;58.396;15.544;2022-07-06T18:08:37;100345.94;;;20.56;nan
17928;BME280;9089;58.396;15.544;2022-07-06T18:11:06;100342.28;;;20.46;nan
17928;BME280;9089;58.396;15.544;2022-07-06T18:13:32;100341.31;;;20.47;nan
17928;BME280;9089;58.396;15.544;2022-07-06T18:16:01;100344.31;;;20.21;nan
17928;BME280;9089;58.396;15.544;2022-07-06T18:18:27;100355.81;;;20.10;nan
17928;BME280;9089;58.396;15.544;2022-07-06T18:20:53;100297.69;;;19.90;nan
17928;BME280;9089;58.396;15.544;2022-07-06T18:23:24;100348.28;;;20.04;nan
17928;BME280;9089;58.396;15.544;2022-07-06T18:25:50;100353.03;;;19.77;nan
17928;BME280;9089;58.396;15.544;2022-07-06T18:28:16;100354.47;;;19.70;nan
17928;BME280;9089;58.396;15.544;2022-07-06T18:30:42;100351.72;;;19.48;nan
17928;BME280;9089;58.396;15.544;2022-07-06T18:33:09;100351.41;;;19.40;nan
17928;BME280;9089;58.396;15.544;2022-07-06T18:35:35;100344.94;;;19.31;nan
17928;BME280;9089;58.396;15.544;2022-07-06T18:38:01;100346.13;;;19.27;nan
17928;BME280;9089;58.396;15.544;2022-07-06T18:40:26;100343.63;;;19.13;nan
17928;BME280;9089;58.396;15.544;2022-07-06T18:42:52;100332.22;;;18.99;nan
17928;BME280;9089;58.396;15.544;2022-07-06T18:45:18;100332.19;;;19.11;nan
17928;BME280;9089;58.396;15.544;2022-07-06T18:47:44;100348.84;;;19.15;nan
17928;BME280;9089;58.396;15.544;2022-07-06T18:50:12;100347.22;;;19.12;nan
17928;BME280;9089;58.396;15.544;2022-07-06T18:52:38;100351.63;;;19.13;nan
17928;BME280;9089;58.396;15.544;2022-07-06T18:55:04;100353.19;;;18.92;nan
17928;BME280;9089;58.396;15.544;2022-07-06T18:57:31;100358.22;;;18.84;nan
17928;BME280;9089;58.396;15.544;2022-07-06T18:59:56;100350.94;;;18.86;nan
17928;BME280;9089;58.396;15.544;2022-07-06T19:02:23;100354.09;;;18.67;nan
17928;BME280;9089;58.396;15.544;2022-07-06T19:04:48;100348.41;;;18.72;nan
17928;BME280;9089;58.396;15.544;2022-07-06T19:07:15;100347.38;;;18.49;nan
17928;BME280;9089;58.396;15.544;2022-07-06T19:09:41;100358.06;;;18.49;nan
17928;BME280;9089;58.396;15.544;2022-07-06T19:12:07;100345.69;;;18.48;nan
17928;BME280;9089;58.396;15.544;2022-07-06T19:14:33;100348.22;;;18.25;nan
17928;BME280;9089;58.396;15.544;2022-07-06T19:16:59;100351.19;;;18.33;nan
17928;BME280;9089;58.396;15.544;2022-07-06T19:19:25;100347.97;;;18.15;nan
17928;BME280;9089;58.396;15.544;2022-07-06T19:21:51;100352.16;;;18.19;nan
17928;BME280;9089;58.396;15.544;2022-07-06T19:24:18;100355.34;;;18.12;nan
17928;BME280;9089;58.396;15.544;2022-07-06T19:26:44;100349.56;;;17.93;nan
17928;BME280;9089;58.396;15.544;2022-07-06T19:29:10;100353.19;;;17.92;nan
17928;BME280;9089;58.396;15.544;2022-07-06T19:31:36;100349.66;;;17.91;nan
17928;BME280;9089;58.396;15.544;2022-07-06T19:34:02;100360.09;;;17.69;nan
17928;BME280;9089;58.396;15.544;2022-07-06T19:36:28;100352.19;;;17.67;nan
17928;BME280;9089;58.396;15.544;2022-07-06T19:38:54;60427.19;;;-140.69;100.00
17928;BME280;9089;58.396;15.544;2022-07-06T19:41:21;60427.19;;;-140.69;100.00
17928;BME280;9089;58.396;15.544;2022-07-06T19:43:48;60427.19;;;-140.69;100.00
17928;BME280;9089;58.396;15.544;2022-07-06T19:46:14;60427.19;;;-140.69;100.00
17928;BME280;9089;58.396;15.544;2022-07-06T19:48:39;60427.19;;;-140.69;100.00
17928;BME280;9089;58.396;15.544;2022-07-06T19:51:05;60427.19;;;-140.69;100.00
17928;BME280;9089;58.396;15.544;2022-07-06T19:53:33;60427.19;;;-140.69;100.00
17928;BME280;9089;58.396;15.544;2022-07-06T19:55:59;60427.19;;;-140.69;100.00
17928;BME280;9089;58.396;15.544;2022-07-06T19:58:26;100347.03;;;17.38;nan
17928;BME280;9089;58.396;15.544;2022-07-06T20:00:53;100361.13;;;17.13;nan
17928;BME280;9089;58.396;15.544;2022-07-06T20:03:19;100360.84;;;17.04;nan
17928;BME280;9089;58.396;15.544;2022-07-06T20:05:44;100359.63;;;17.09;nan
17928;BME280;9089;58.396;15.544;2022-07-06T20:08:10;100354.69;;;16.89;nan
17928;BME280;9089;58.396;15.544;2022-07-06T20:10:36;100357.22;;;16.64;nan
17928;BME280;9089;58.396;15.544;2022-07-06T20:13:01;100360.44;;;16.69;nan
17928;BME280;9089;58.396;15.544;2022-07-06T20:15:29;100360.72;;;16.65;nan
17928;BME280;9089;58.396;15.544;2022-07-06T20:17:54;100353.59;;;16.65;nan
17928;BME280;9089;58.396;15.544;2022-07-06T20:20:20;100356.47;;;16.48;nan
17928;BME280;9089;58.396;15.544;2022-07-06T20:22:46;100358.25;;;16.76;nan
17928;BME280;9089;58.396;15.544;2022-07-06T20:25:12;100352.47;;;16.55;nan
17928;BME280;9089;58.396;15.544;2022-07-06T20:27:37;100359.47;;;16.42;nan
17928;BME280;9089;58.396;15.544;2022-07-06T20:30:03;100365.84;;;16.39;nan
17928;BME280;9089;58.396;15.544;2022-07-06T20:32:31;100360.47;;;15.97;nan
17928;BME280;9089;58.396;15.544;2022-07-06T20:34:56;60427.19;;;-140.69;100.00
17928;BME280;9089;58.396;15.544;2022-07-06T20:37:22;60427.19;;;-140.69;100.00
17928;BME280;9089;58.396;15.544;2022-07-06T20:39:48;60427.19;;;-140.69;100.00
17928;BME280;9089;58.396;15.544;2022-07-06T20:42:13;60427.19;;;-140.69;100.00
17928;BME280;9089;58.396;15.544;2022-07-06T20:44:39;60427.19;;;-140.69;100.00
17928;BME280;9089;58.396;15.544;2022-07-06T20:47:05;60427.19;;;-140.69;100.00
17928;BME280;9089;58.396;15.544;2022-07-06T20:49:32;60427.19;;;-140.69;100.00
17928;BME280;9089;58.396;15.544;2022-07-06T20:51:58;60427.19;;;-140.69;100.00
17928;BME280;9089;58.396;15.544;2022-07-06T20:54:23;60427.19;;;-140.69;100.00
17928;BME280;9089;58.396;15.544;2022-07-06T20:56:49;60427.19;;;-140.69;100.00
17928;BME280;9089;58.396;15.544;2022-07-06T20:59:15;60427.19;;;-140.69;100.00
17928;BME280;9089;58.396;15.544;2022-07-06T21:01:41;60427.19;;;-140.69;100.00
17928;BME280;9089;58.396;15.544;2022-07-06T21:04:06;60427.19;;;-140.69;100.00
17928;BME280;9089;58.396;15.544;2022-07-06T21:06:34;60427.19;;;-140.69;100.00
17928;BME280;9089;58.396;15.544;2022-07-06T21:08:59;60427.19;;;-140.69;100.00
17928;BME280;9089;58.396;15.544;2022-07-06T21:11:25;60427.19;;;-140.69;100.00
17928;BME280;9089;58.396;15.544;2022-07-06T21:13:51;60427.19;;;-140.69;100.00
17928;BME280;9089;58.396;15.544;2022-07-06T21:16:16;60427.19;;;-140.69;100.00
17928;BME280;9089;58.396;15.544;2022-07-06T21:18:44;60427.19;;;-140.69;100.00
17928;BME280;9089;58.396;15.544;2022-07-06T21:21:10;60427.19;;;-140.69;100.00
17928;BME280;9089;58.396;15.544;2022-07-06T21:23:37;60427.19;;;-140.69;100.00
17928;BME280;9089;58.396;15.544;2022-07-06T21:26:04;60427.19;;;-140.69;100.00
17928;BME280;9089;58.396;15.544;2022-07-06T21:28:30;60427.19;;;-140.69;100.00
17928;BME280;9089;58.396;15.544;2022-07-06T21:30:56;60427.19;;;-140.69;100.00
17928;BME280;9089;58.396;15.544;2022-07-06T21:33:22;60427.19;;;-140.69;100.00
17928;BME280;9089;58.396;15.544;2022-07-06T21:35:49;60427.19;;;-140.69;100.00
17928;BME280;9089;58.396;15.544;2022-07-06T21:38:15;60427.19;;;-140.69;100.00
17928;BME280;9089;58.396;15.544;2022-07-06T21:40:42;60427.19;;;-140.69;100.00
17928;BME280;9089;58.396;15.544;2022-07-06T21:43:07;60427.19;;;-140.69;100.00
17928;BME280;9089;58.396;15.544;2022-07-06T21:45:33;60427.19;;;-140.69;100.00
17928;BME280;9089;58.396;15.544;2022-07-06T21:48:00;60427.19;;;-140.69;100.00
17928;BME280;9089;58.396;15.544;2022-07-06T21:50:26;60427.19;;;-140.69;100.00
17928;BME280;9089;58.396;15.544;2022-07-06T21:52:52;60427.19;;;-140.69;100.00
17928;BME280;9089;58.396;15.544;2022-07-06T21:55:18;60427.19;;;-140.69;100.00
17928;BME280;9089;58.396;15.544;2022-07-06T21:57:45;60427.19;;;-140.69;100.00
17928;BME280;9089;58.396;15.544;2022-07-06T22:00:12;60427.19;;;-140.69;100.00
17928;BME280;9089;58.396;15.544;2022-07-06T22:02:38;60427.19;;;-140.69;100.00
17928;BME280;9089;58.396;15.544;2022-07-06T22:05:04;60427.19;;;-140.69;100.00
17928;BME280;9089;58.396;15.544;2022-07-06T22:07:30;60427.19;;;-140.69;100.00
17928;BME280;9089;58.396;15.544;2022-07-06T22:09:56;60427.19;;;-140.69;100.00
17928;BME280;9089;58.396;15.544;2022-07-06T22:12:22;60427.19;;;-140.69;100.00
17928;BME280;9089;58.396;15.544;2022-07-06T22:14:50;60427.19;;;-140.69;100.00
17928;BME280;9089;58.396;15.544;2022-07-06T22:17:16;60427.19;;;-140.69;100.00
17928;BME280;9089;58.396;15.544;2022-07-06T22:19:41;60427.19;;;-140.69;100.00
17928;BME280;9089;58.396;15.544;2022-07-06T22:22:07;60427.19;;;-140.69;100.00
17928;BME280;9089;58.396;15.544;2022-07-06T22:24:33;60427.19;;;-140.69;100.00
17928;BME280;9089;58.396;15.544;2022-07-06T22:26:59;60427.19;;;-140.69;100.00
17928;BME280;9089;58.396;15.544;2022-07-06T22:29:25;60427.19;;;-140.69;100.00
17928;BME280;9089;58.396;15.544;2022-07-06T22:31:53;60427.19;;;-140.69;100.00
17928;BME280;9089;58.396;15.544;2022-07-06T22:34:19;60427.19;;;-140.69;100.00
17928;BME280;9089;58.396;15.544;2022-07-06T22:36:44;60427.19;;;-140.69;100.00
17928;BME280;9089;58.396;15.544;2022-07-06T22:39:10;60427.19;;;-140.69;100.00
17928;BME280;9089;58.396;15.544;2022-07-06T22:41:36;60427.19;;;-140.69;100.00
17928;BME280;9089;58.396;15.544;2022-07-06T22:44:03;60427.19;;;-140.69;100.00
17928;BME280;9089;58.396;15.544;2022-07-06T22:46:28;60427.19;;;-140.69;100.00
17928;BME280;9089;58.396;15.544;2022-07-06T22:48:56;60427.19;;;-140.69;100.00
17928;BME280;9089;58.396;15.544;2022-07-06T22:51:23;60427.19;;;-140.69;100.00
17928;BME280;9089;58.396;15.544;2022-07-06T22:53:49;60427.19;;;-140.69;100.00
17928;BME280;9089;58.396;15.544;2022-07-06T22:56:15;60427.19;;;-140.69;100.00
17928;BME280;9089;58.396;15.544;2022-07-06T22:58:42;60427.19;;;-140.69;100.00
17928;BME280;9089;58.396;15.544;2022-07-06T23:01:11;60427.19;;;-140.69;100.00
17928;BME280;9089;58.396;15.544;2022-07-06T23:03:38;60427.19;;;-140.69;100.00
17928;BME280;9089;58.396;15.544;2022-07-06T23:06:05;60427.19;;;-140.69;100.00
17928;BME280;9089;58.396;15.544;2022-07-06T23:08:31;60427.19;;;-140.69;100.00
17928;BME280;9089;58.396;15.544;2022-07-06T23:10:57;60427.19;;;-140.69;100.00
17928;BME280;9089;58.396;15.544;2022-07-06T23:13:23;60427.19;;;-140.69;100.00
17928;BME280;9089;58.396;15.544;2022-07-06T23:15:49;60427.19;;;-140.69;100.00
17928;BME280;9089;58.396;15.544;2022-07-06T23:18:17;60427.19;;;-140.69;100.00
17928;BME280;9089;58.396;15.544;2022-07-06T23:20:42;60427.19;;;-140.69;100.00
17928;BME280;9089;58.396;15.544;2022-07-06T23:23:10;60427.19;;;-140.69;100.00
17928;BME280;9089;58.396;15.544;2022-07-06T23:25:36;60427.19;;;-140.69;100.00
17928;BME280;9089;58.396;15.544;2022-07-06T23:28:02;60427.19;;;-140.69;100.00
17928;BME280;9089;58.396;15.544;2022-07-06T23:30:28;60427.19;;;-140.69;100.00
17928;BME280;9089;58.396;15.544;2022-07-06T23:32:53;60427.19;;;-140.69;100.00
17928;BME280;9089;58.396;15.544;2022-07-06T23:35:19;60427.19;;;-140.69;100.00
17928;BME280;9089;58.396;15.544;2022-07-06T23:37:46;60427.19;;;-140.69;100.00
17928;BME280;9089;58.396;15.544;2022-07-06T23:40:13;60427.19;;;-140.69;100.00
17928;BME280;9089;58.396;15.544;2022-07-06T23:42:39;60427.19;;;-140.69;100.00
17928;BME280;9089;58.396;15.544;2022-07-06T23:45:06;60427.19;;;-140.69;100.00
17928;BME280;9089;58.396;15.544;2022-07-06T23:47:32;60427.19;;;-140.69;100.00
17928;BME280;9089;58.396;15.544;2022-07-06T23:49:58;60427.19;;;-140.69;100.00
17928;BME280;9089;58.396;15.544;2022-07-06T23:52:24;60427.19;;;-140.69;100.00
17928;BME280;9089;58.396;15.544;2022-07-06T23:54:49;60427.19;;;-140.69;100.00
17928;BME280;9089;58.396;15.544;2022-07-06T23:57:17;60427.19;;;-140.69;100.00
17928;BME280;9089;58.396;15.544;2022-07-06T23:59:42;60427.19;;;-140.69;100.00
